createdAt,value
2022-12-17T00:02:45.026Z,100565.53
2022-12-17T00:08:05.428Z,100562.09
2022-12-17T00:13:37.118Z,100571.78
2022-12-17T00:18:59.123Z,100578.25
2022-12-17T00:24:19.241Z,100577.75
2022-12-17T00:29:39.694Z,100587.66
2022-12-17T00:35:01.156Z,100584.97
2022-12-17T00:40:22.405Z,100594.88
2022-12-17T00:45:42.760Z,100599.50
2022-12-17T00:51:04.275Z,100604.16
2022-12-17T00:56:24.736Z,100609.47
2022-12-17T01:01:45.058Z,100611.38
2022-12-17T01:07:06.711Z,100613.22
2022-12-17T01:12:26.897Z,100619.56
2022-12-17T01:17:47.931Z,100615.16
2022-12-17T01:23:09.728Z,100622.25
2022-12-17T01:28:29.915Z,100629.47
2022-12-17T01:33:49.911Z,100633.19
2022-12-17T01:39:11.454Z,100635.03
2022-12-17T01:45:05.704Z,100635.69
2022-12-17T01:50:26.878Z,100642.13
2022-12-17T01:55:48.325Z,100648.00
2022-12-17T02:01:08.895Z,100650.72
2022-12-17T02:06:36.574Z,100645.72
2022-12-17T02:12:09.745Z,100660.50
2022-12-17T02:17:36.420Z,100654.22
2022-12-17T02:23:09.888Z,100666.13
2022-12-17T02:28:46.304Z,100656.88
2022-12-17T02:34:07.281Z,100659.41
2022-12-17T02:39:27.408Z,100668.06
2022-12-17T02:44:50.783Z,100668.81
2022-12-17T02:50:11.631Z,100673.78
2022-12-17T02:55:32.132Z,100679.19
2022-12-17T03:00:54.031Z,100686.41
2022-12-17T03:06:14.546Z,100676.38
2022-12-17T03:11:43.086Z,100680.81
2022-12-17T03:17:04.577Z,100689.78
2022-12-17T03:22:25.109Z,100686.97
2022-12-17T03:27:45.323Z,100693.34
2022-12-17T03:33:06.809Z,100704.00
2022-12-17T03:38:28.395Z,100695.94
2022-12-17T03:43:48.458Z,100695.81
2022-12-17T03:49:09.979Z,100694.78
2022-12-17T03:54:29.950Z,100705.56
2022-12-17T03:59:50.409Z,100704.13
2022-12-17T04:05:16.582Z,100710.16
2022-12-17T04:10:40.171Z,100716.72
2022-12-17T04:16:00.913Z,100737.97
2022-12-17T04:21:23.237Z,100736.34
2022-12-17T04:26:39.887Z,100746.41
2022-12-17T04:32:14.469Z,100757.38
2022-12-17T04:37:35.965Z,100759.72
2022-12-17T04:42:56.005Z,100759.47
2022-12-17T04:48:20.870Z,100761.19
2022-12-17T04:53:42.833Z,100764.22
2022-12-17T04:59:03.292Z,100765.00
2022-12-17T05:04:24.031Z,100789.75
2022-12-17T05:09:45.891Z,100805.47
2022-12-17T05:15:06.113Z,100811.03
2022-12-17T05:20:27.041Z,100807.13
2022-12-17T05:25:48.940Z,100811.16
2022-12-17T05:31:10.550Z,100819.63
2022-12-17T05:36:31.053Z,100823.09
2022-12-17T05:41:52.918Z,100829.94
2022-12-17T05:47:13.048Z,100832.72
2022-12-17T05:52:33.681Z,100840.13
2022-12-17T05:57:56.758Z,100843.13
2022-12-17T06:03:18.452Z,100847.84
2022-12-17T06:08:38.971Z,100854.22
2022-12-17T06:14:00.470Z,100856.28
2022-12-17T06:19:20.862Z,100866.22
2022-12-17T06:24:45.704Z,100864.78
2022-12-17T06:30:07.943Z,100869.44
2022-12-17T06:35:28.003Z,100875.00
2022-12-17T06:40:48.580Z,100883.91
2022-12-17T06:46:11.622Z,100892.13
2022-12-17T06:51:31.913Z,100903.84
2022-12-17T06:56:52.332Z,100906.78
2022-12-17T07:02:13.941Z,100904.03
2022-12-17T07:07:34.268Z,100915.69
2022-12-17T07:12:54.297Z,100931.88
2022-12-17T07:18:17.820Z,100934.84
2022-12-17T07:23:38.406Z,100939.47
2022-12-17T07:28:59.046Z,100946.72
2022-12-17T07:34:20.724Z,100956.00
2022-12-17T07:39:40.934Z,100965.78
2022-12-17T07:45:01.246Z,100979.41
2022-12-17T07:50:19.900Z,100976.03
2022-12-17T07:55:42.863Z,100970.75
2022-12-17T08:01:03.062Z,100971.44
2022-12-17T08:06:25.241Z,100975.06
2022-12-17T08:11:45.276Z,101003.38
2022-12-17T08:17:05.549Z,101010.56
2022-12-17T08:22:26.984Z,101021.41
2022-12-17T08:27:47.560Z,101029.38
2022-12-17T08:33:07.724Z,101032.16
2022-12-17T08:38:29.232Z,101043.13
2022-12-17T08:43:49.821Z,101047.75
2022-12-17T08:49:10.027Z,101052.72
2022-12-17T08:54:31.835Z,101058.28
2022-12-17T09:00:06.481Z,101056.03
2022-12-17T09:05:28.347Z,101064.53
2022-12-17T09:10:49.963Z,101070.59
2022-12-17T09:16:11.429Z,101076.53
2022-12-17T09:21:31.941Z,101063.75
2022-12-17T09:26:53.946Z,101057.38
2022-12-17T09:32:13.987Z,101069.78
2022-12-17T09:37:34.182Z,101093.59
2022-12-17T09:43:03.734Z,101087.78
2022-12-17T09:48:32.698Z,101089.44
2022-12-17T09:53:57.114Z,101092.97
2022-12-17T09:59:18.985Z,101092.97
2022-12-17T10:04:48.712Z,101100.00
2022-12-17T10:10:10.316Z,101110.44
2022-12-17T10:15:34.858Z,101103.34
2022-12-17T10:21:01.672Z,101102.47
2022-12-17T10:26:36.743Z,101110.66
2022-12-17T10:31:58.263Z,101114.47
2022-12-17T10:37:18.960Z,101113.78
2022-12-17T10:42:42.333Z,101121.19
2022-12-17T10:48:03.746Z,101119.56
2022-12-17T10:53:47.330Z,101127.84
2022-12-17T10:59:19.010Z,101128.94
2022-12-17T11:04:47.056Z,101137.13
2022-12-17T11:10:10.227Z,101143.59
2022-12-17T11:15:52.574Z,101153.44
2022-12-17T11:21:21.723Z,101153.59
2022-12-17T11:26:45.506Z,101150.97
2022-12-17T11:32:20.997Z,101154.47
2022-12-17T11:37:49.480Z,101143.25
2022-12-17T11:43:17.503Z,101153.59
2022-12-17T11:48:44.707Z,101142.88
2022-12-17T11:54:16.361Z,101148.16
2022-12-17T11:59:52.740Z,101158.09
2022-12-17T12:05:26.588Z,101155.34
2022-12-17T12:10:57.794Z,101151.09
2022-12-17T12:16:28.303Z,101162.91
2022-12-17T12:21:54.706Z,101158.09
2022-12-17T12:27:30.898Z,101167.72
2022-12-17T12:32:58.872Z,101171.56
2022-12-17T12:38:20.685Z,101178.59
2022-12-17T12:43:47.875Z,101176.06
2022-12-17T12:49:16.792Z,101177.28
2022-12-17T12:54:47.211Z,101182.91
2022-12-17T13:00:09.204Z,101192.53
2022-12-17T13:05:37.263Z,101200.53
2022-12-17T13:10:40.588Z,101202.00
2022-12-17T13:15:49.060Z,101206.41
2022-12-17T13:21:00.538Z,101204.72
2022-12-17T13:26:19.753Z,101210.47
2022-12-17T13:31:28.185Z,101209.69
2022-12-17T13:36:40.332Z,101220.94
2022-12-17T13:41:43.154Z,101220.63
2022-12-17T13:46:49.333Z,101220.44
2022-12-17T13:52:06.479Z,101224.38
2022-12-17T13:57:16.390Z,101238.16
2022-12-17T14:02:29.381Z,101247.66
2022-12-17T14:07:35.997Z,101253.59
2022-12-17T14:12:38.961Z,101264.91
2022-12-17T14:17:46.494Z,101268.28
2022-12-17T14:22:52.125Z,101267.06
2022-12-17T14:27:56.618Z,101270.63
2022-12-17T14:33:00.766Z,101267.94
2022-12-17T14:38:04.846Z,101269.72
2022-12-17T14:43:08.110Z,101271.34
2022-12-17T14:48:17.098Z,101280.31
2022-12-17T14:53:27.840Z,101289.25
2022-12-17T14:58:30.876Z,101293.97
2022-12-17T15:03:39.622Z,101297.34
2022-12-17T15:08:44.166Z,101297.97
2022-12-17T15:13:51.554Z,101302.53
2022-12-17T15:19:00.689Z,101299.59
2022-12-17T15:24:03.785Z,101305.59
2022-12-17T15:29:06.596Z,101305.41
2022-12-17T15:34:12.737Z,101309.94
2022-12-17T15:39:15.610Z,101318.50
2022-12-17T15:44:18.364Z,101321.13
2022-12-17T15:49:22.912Z,101317.88
2022-12-17T15:54:26.230Z,101321.91
2022-12-17T15:59:29.176Z,101327.91
2022-12-17T16:04:33.351Z,101333.47
2022-12-17T16:09:36.344Z,101341.22
2022-12-17T16:14:39.249Z,101339.72
2022-12-17T16:19:43.347Z,101350.34
2022-12-17T16:24:46.458Z,101355.75
2022-12-17T16:29:49.312Z,101350.97
2022-12-17T16:34:53.571Z,101347.81
2022-12-17T16:39:59.916Z,101350.00
2022-12-17T16:45:03.313Z,101361.66
2022-12-17T16:50:08.116Z,101361.94
2022-12-17T16:55:11.184Z,101370.16
2022-12-17T17:00:15.153Z,101371.53
2022-12-17T17:05:19.672Z,101370.34
2022-12-17T17:10:22.413Z,101377.72
2022-12-17T17:15:25.265Z,101377.56
2022-12-17T17:20:32.131Z,101386.78
2022-12-17T17:25:57.719Z,101392.53
2022-12-17T17:31:00.070Z,101394.88
2022-12-17T17:36:09.412Z,101395.56
2022-12-17T17:41:14.985Z,101395.22
2022-12-17T17:46:19.846Z,101393.59
2022-12-17T17:51:59.799Z,101400.25
2022-12-17T17:56:49.484Z,101406.31
2022-12-17T18:01:52.706Z,101412.19
2022-12-17T18:12:37.353Z,101416.56
2022-12-17T18:17:40.341Z,101421.16
2022-12-17T18:22:45.778Z,101426.47
2022-12-17T18:27:52.375Z,101430.75
2022-12-17T18:32:55.841Z,101432.50
2022-12-17T18:38:01.891Z,101433.00
2022-12-17T18:43:22.293Z,101446.34
2022-12-17T18:48:25.132Z,101448.97
2022-12-17T18:53:29.280Z,101446.50
2022-12-17T18:58:32.101Z,101462.28
2022-12-17T19:03:35.216Z,101458.00
2022-12-17T19:08:39.655Z,101457.38
2022-12-17T19:13:50.845Z,101461.28
2022-12-17T19:18:54.683Z,101467.47
2022-12-17T19:24:01.886Z,101472.75
2022-12-17T19:29:05.305Z,101473.44
2022-12-17T19:34:11.230Z,101469.09
2022-12-17T19:39:17.203Z,101473.72
2022-12-17T19:44:21.444Z,101478.28
2022-12-17T19:49:24.327Z,101493.34
2022-12-17T19:54:28.518Z,101486.47
2022-12-17T19:59:31.445Z,101498.34
2022-12-17T20:04:34.504Z,101502.63
2022-12-17T20:09:40.402Z,101508.41
2022-12-17T20:14:43.201Z,101517.22
2022-12-17T20:19:45.996Z,101512.06
2022-12-17T20:24:50.378Z,101520.00
2022-12-17T20:29:54.073Z,101520.94
2022-12-17T20:34:56.941Z,101518.47
2022-12-17T20:40:01.020Z,101513.47
2022-12-17T20:45:04.053Z,101517.84
2022-12-17T20:50:07.954Z,101513.97
2022-12-17T20:55:12.350Z,101519.91
2022-12-17T21:00:15.417Z,101519.25
2022-12-17T21:05:18.608Z,101519.19
2022-12-17T21:10:23.176Z,101526.47
2022-12-17T21:15:29.074Z,101536.84
2022-12-17T21:20:31.793Z,101550.88
2022-12-17T21:25:39.421Z,101555.66
2022-12-17T21:30:42.387Z,101547.84
2022-12-17T21:35:45.193Z,101556.88
2022-12-17T21:40:49.321Z,101555.88
2022-12-17T21:45:58.685Z,101554.47
2022-12-17T21:51:01.478Z,101567.88
2022-12-17T21:56:07.773Z,101570.56
2022-12-17T22:01:17.830Z,101568.13
2022-12-17T22:06:25.089Z,101570.88
2022-12-17T22:11:35.155Z,101581.41
2022-12-17T22:16:42.188Z,101579.81
2022-12-17T22:21:46.708Z,101587.03
2022-12-17T22:26:50.861Z,101598.63
2022-12-17T22:32:11.123Z,101602.53
2022-12-17T22:41:40.602Z,101605.97
2022-12-17T22:44:44.342Z,101607.00
2022-12-17T22:48:19.232Z,101610.56
2022-12-17T22:53:22.490Z,101601.63
2022-12-17T22:58:26.745Z,101611.53
2022-12-17T23:03:29.585Z,101608.31
2022-12-17T23:08:32.434Z,101614.44
2022-12-17T23:13:37.422Z,101608.88
2022-12-17T23:18:41.637Z,101601.91
2022-12-17T23:23:44.813Z,101611.00
2022-12-17T23:28:49.096Z,101618.13
2022-12-17T23:33:52.372Z,101629.75
2022-12-17T23:38:57.163Z,101628.09
2022-12-17T23:44:01.713Z,101627.94
2022-12-17T23:49:05.377Z,101635.22
2022-12-17T23:54:08.218Z,101638.06
2022-12-17T23:59:12.374Z,101636.44
